createdAt,value
2018-09-30T00:00:26.515Z,9.37
2018-09-30T00:01:01.297Z,9.32
2018-09-30T00:01:36.080Z,9.36
2018-09-30T00:02:10.726Z,9.29
2018-09-30T00:02:45.404Z,9.26
2018-09-30T00:03:20.072Z,9.22
2018-09-30T00:03:54.899Z,9.25
2018-09-30T00:04:29.755Z,9.24
2018-09-30T00:05:04.589Z,9.34
2018-09-30T00:05:39.292Z,9.33
2018-09-30T00:06:13.954Z,9.35
2018-09-30T00:06:48.624Z,9.34
2018-09-30T00:07:23.545Z,9.37
2018-09-30T00:07:58.621Z,9.32
2018-09-30T00:08:33.356Z,9.34
2018-09-30T00:09:08.921Z,9.39
2018-09-30T00:09:43.532Z,9.38
2018-09-30T00:10:18.232Z,9.36
2018-09-30T00:10:52.987Z,9.34
2018-09-30T00:11:27.812Z,9.32
2018-09-30T00:12:03.575Z,9.33
2018-09-30T00:12:38.688Z,9.34
2018-09-30T00:13:13.325Z,9.35
2018-09-30T00:13:47.961Z,9.40
2018-09-30T00:14:22.802Z,9.38
2018-09-30T00:14:57.650Z,9.33
2018-09-30T00:15:32.467Z,9.30
2018-09-30T00:16:07.572Z,9.29
2018-09-30T00:16:42.350Z,9.40
2018-09-30T00:17:17.048Z,9.39
2018-09-30T00:17:52.660Z,9.45
2018-09-30T00:18:27.279Z,9.42
2018-09-30T00:19:02.268Z,9.40
2018-09-30T00:19:37.276Z,9.35
2018-09-30T00:20:12.093Z,9.39
2018-09-30T00:20:46.785Z,9.53
2018-09-30T00:21:21.429Z,9.43
2018-09-30T00:21:56.229Z,9.58
2018-09-30T00:22:31.310Z,9.51
2018-09-30T00:23:06.024Z,9.41
2018-09-30T00:23:45.924Z,9.38
2018-09-30T00:24:26.419Z,9.51
2018-09-30T00:25:06.280Z,9.41
2018-09-30T00:25:46.376Z,9.36
2018-09-30T00:26:26.329Z,9.36
2018-09-30T00:27:02.641Z,9.30
2018-09-30T00:27:37.604Z,9.24
2018-09-30T00:28:12.326Z,9.30
2018-09-30T00:28:47.354Z,9.45
2018-09-30T00:29:22.489Z,9.42
2018-09-30T00:29:57.303Z,9.47
2018-09-30T00:30:32.044Z,9.48
2018-09-30T00:31:07.004Z,9.43
2018-09-30T00:31:41.888Z,9.45
2018-09-30T00:32:16.496Z,9.38
2018-09-30T00:32:51.525Z,9.45
2018-09-30T00:33:26.433Z,9.41
2018-09-30T00:34:06.581Z,9.50
2018-09-30T00:34:41.336Z,9.58
2018-09-30T00:35:15.962Z,9.53
2018-09-30T00:35:50.619Z,9.51
2018-09-30T00:36:25.558Z,9.51
2018-09-30T00:37:00.971Z,9.54
2018-09-30T00:37:35.700Z,9.51
2018-09-30T00:38:10.358Z,9.41
2018-09-30T00:38:45.099Z,9.47
2018-09-30T00:39:19.740Z,9.46
2018-09-30T00:39:54.804Z,9.39
2018-09-30T00:40:29.782Z,9.45
2018-09-30T00:41:05.288Z,9.47
2018-09-30T00:41:40.012Z,9.43
2018-09-30T00:42:14.727Z,9.37
2018-09-30T00:42:49.485Z,9.34
2018-09-30T00:43:24.346Z,9.38
2018-09-30T00:43:59.070Z,9.37
2018-09-30T00:44:33.820Z,9.26
2018-09-30T00:45:09.187Z,9.23
2018-09-30T00:45:43.817Z,9.17
2018-09-30T00:46:18.545Z,9.20
2018-09-30T00:46:53.782Z,9.24
2018-09-30T00:47:28.868Z,9.17
2018-09-30T00:48:03.760Z,9.11
2018-09-30T00:48:38.478Z,9.18
2018-09-30T00:49:12.621Z,9.12
2018-09-30T00:49:47.352Z,9.10
2018-09-30T00:50:21.978Z,9.13
2018-09-30T00:50:57.001Z,9.24
2018-09-30T00:51:31.696Z,9.35
2018-09-30T00:52:06.491Z,9.21
2018-09-30T00:52:41.098Z,9.13
2018-09-30T00:53:15.710Z,9.14
2018-09-30T00:53:50.337Z,9.32
2018-09-30T00:54:25.143Z,9.43
2018-09-30T00:54:59.851Z,9.31
2018-09-30T00:55:41.086Z,9.26
2018-09-30T00:56:15.821Z,9.19
2018-09-30T00:56:50.443Z,9.10
2018-09-30T00:57:25.358Z,9.05
2018-09-30T00:58:00.050Z,8.99
2018-09-30T00:58:34.754Z,9.16
2018-09-30T00:59:09.714Z,9.07
2018-09-30T00:59:44.465Z,9.02
2018-09-30T01:00:19.101Z,8.96
2018-09-30T01:00:53.856Z,9.04
2018-09-30T01:01:28.628Z,9.09
2018-09-30T01:02:03.557Z,9.12
2018-09-30T01:02:38.386Z,9.09
2018-09-30T01:03:13.032Z,9.07
2018-09-30T01:03:47.669Z,9.11
2018-09-30T01:04:22.792Z,9.02
2018-09-30T01:04:57.593Z,8.97
2018-09-30T01:05:32.354Z,8.97
2018-09-30T01:06:07.728Z,8.96
2018-09-30T01:06:42.367Z,9.00
2018-09-30T01:07:17.058Z,8.92
2018-09-30T01:07:51.732Z,8.88
2018-09-30T01:08:26.614Z,8.87
2018-09-30T01:09:01.396Z,8.87
2018-09-30T01:09:36.073Z,8.89
2018-09-30T01:10:10.710Z,8.89
2018-09-30T01:10:45.321Z,8.88
2018-09-30T01:11:20.200Z,8.88
2018-09-30T01:11:55.124Z,8.99
2018-09-30T01:12:29.949Z,8.96
2018-09-30T01:13:04.814Z,8.96
2018-09-30T01:13:39.490Z,8.98
2018-09-30T01:14:14.298Z,8.93
2018-09-30T01:14:49.073Z,8.85
2018-09-30T01:15:23.816Z,9.03
2018-09-30T01:15:58.879Z,9.06
2018-09-30T01:16:34.607Z,9.04
2018-09-30T01:17:09.267Z,9.07
2018-09-30T01:17:43.883Z,9.14
2018-09-30T01:18:18.592Z,9.07
2018-09-30T01:18:53.595Z,9.01
2018-09-30T01:19:28.378Z,9.00
2018-09-30T01:20:03.129Z,8.89
2018-09-30T01:20:38.026Z,8.94
2018-09-30T01:21:12.678Z,8.90
2018-09-30T01:21:47.465Z,8.96
2018-09-30T01:22:22.126Z,8.92
2018-09-30T01:22:56.988Z,8.83
2018-09-30T01:23:31.752Z,9.05
2018-09-30T01:24:06.449Z,9.06
2018-09-30T01:24:41.108Z,8.96
2018-09-30T01:25:15.771Z,9.10
2018-09-30T01:25:50.492Z,9.03
2018-09-30T01:26:25.354Z,8.95
2018-09-30T01:27:00.171Z,9.09
2018-09-30T01:27:34.791Z,9.06
2018-09-30T01:28:15.872Z,9.05
2018-09-30T01:28:50.509Z,9.07
2018-09-30T01:29:25.570Z,9.00
2018-09-30T01:30:00.334Z,8.93
2018-09-30T01:31:40.504Z,9.01
2018-09-30T01:32:15.229Z,8.97
2018-09-30T01:32:49.884Z,9.00
2018-09-30T01:33:24.768Z,9.04
2018-09-30T01:33:59.744Z,9.00
2018-09-30T01:34:34.479Z,8.95
2018-09-30T01:35:08.883Z,8.93
2018-09-30T01:35:43.638Z,8.94
2018-09-30T01:36:18.317Z,8.90
2018-09-30T01:36:53.188Z,8.99
2018-09-30T01:37:27.917Z,9.06
2018-09-30T01:38:02.627Z,8.98
2018-09-30T01:38:37.317Z,9.04
2018-09-30T01:39:12.052Z,8.94
2018-09-30T01:39:46.706Z,8.92
2018-09-30T01:40:21.412Z,8.87
2018-09-30T01:40:56.330Z,8.90
2018-09-30T01:41:31.139Z,8.94
2018-09-30T01:42:05.866Z,8.93
2018-09-30T01:42:40.647Z,8.90
2018-09-30T01:43:15.284Z,8.86
2018-09-30T01:43:50.046Z,8.84
2018-09-30T01:44:24.836Z,8.83
2018-09-30T01:44:59.797Z,8.85
2018-09-30T01:45:34.475Z,9.02
2018-09-30T01:46:09.419Z,8.90
2018-09-30T01:46:44.131Z,8.83
2018-09-30T01:47:18.812Z,8.88
2018-09-30T01:47:53.652Z,8.83
2018-09-30T01:48:28.634Z,8.94
2018-09-30T01:49:03.315Z,8.98
2018-09-30T01:49:37.980Z,8.87
2018-09-30T01:50:12.607Z,8.86
2018-09-30T01:50:47.290Z,8.82
2018-09-30T01:51:21.944Z,8.95
2018-09-30T01:52:07.879Z,8.93
2018-09-30T01:52:57.502Z,8.99
2018-09-30T01:53:32.492Z,8.98
2018-09-30T01:54:07.587Z,8.94
2018-09-30T01:54:42.256Z,8.98
2018-09-30T01:55:16.933Z,8.99
2018-09-30T01:55:51.738Z,8.90
2018-09-30T01:56:26.530Z,8.87
2018-09-30T01:57:01.648Z,8.79
2018-09-30T01:57:36.730Z,8.70
2018-09-30T01:58:11.393Z,8.67
2018-09-30T01:58:46.025Z,8.78
2018-09-30T01:59:20.760Z,8.75
2018-09-30T01:59:55.619Z,8.77
2018-09-30T02:00:30.628Z,8.72
2018-09-30T02:01:05.354Z,8.71
2018-09-30T02:01:39.552Z,8.70
2018-09-30T02:02:14.334Z,8.75
2018-09-30T02:02:49.184Z,8.72
2018-09-30T02:03:23.975Z,8.68
2018-09-30T02:03:58.702Z,8.70
2018-09-30T02:04:33.468Z,8.71
2018-09-30T02:05:08.665Z,8.70
2018-09-30T02:05:42.845Z,8.75
2018-09-30T02:06:17.888Z,8.74
2018-09-30T02:06:52.576Z,8.70
2018-09-30T02:07:27.498Z,8.65
2018-09-30T02:08:02.361Z,8.73
2018-09-30T02:08:37.234Z,8.68
2018-09-30T02:09:11.897Z,8.64
2018-09-30T02:09:46.538Z,8.85
2018-09-30T02:10:21.254Z,8.78
2018-09-30T02:10:56.365Z,8.71
2018-09-30T02:11:31.212Z,8.71
2018-09-30T02:12:05.903Z,8.66
2018-09-30T02:12:40.602Z,8.62
2018-09-30T02:13:15.247Z,8.60
2018-09-30T02:13:49.889Z,8.58
2018-09-30T02:14:24.723Z,8.56
2018-09-30T02:14:59.444Z,8.57
2018-09-30T02:15:34.175Z,8.62
2018-09-30T02:16:08.864Z,8.60
2018-09-30T02:16:43.549Z,8.57
2018-09-30T02:17:18.195Z,8.51
2018-09-30T02:17:52.875Z,8.48
2018-09-30T02:18:27.998Z,8.49
2018-09-30T02:19:02.720Z,8.50
2018-09-30T02:19:37.385Z,8.46
2018-09-30T02:20:12.039Z,8.49
2018-09-30T02:20:46.705Z,8.44
2018-09-30T02:21:21.723Z,8.48
2018-09-30T02:21:56.587Z,8.59
2018-09-30T02:22:31.315Z,8.56
2018-09-30T02:23:06.128Z,8.54
2018-09-30T02:23:40.795Z,8.66
2018-09-30T02:24:15.443Z,8.70
2018-09-30T02:24:50.118Z,8.60
2018-09-30T02:25:25.092Z,8.57
2018-09-30T02:25:59.926Z,8.49
2018-09-30T02:26:34.685Z,8.47
2018-09-30T02:27:08.831Z,8.52
2018-09-30T02:27:43.648Z,8.51
2018-09-30T02:28:18.288Z,8.45
2018-09-30T02:28:53.257Z,8.52
2018-09-30T02:29:28.067Z,8.49
2018-09-30T02:30:03.317Z,8.52
2018-09-30T02:30:37.529Z,8.54
2018-09-30T02:31:11.706Z,8.52
2018-09-30T02:31:45.875Z,8.46
2018-09-30T02:32:21.891Z,8.44
2018-09-30T02:32:56.657Z,8.39
2018-09-30T02:33:31.552Z,8.37
2018-09-30T02:34:06.316Z,8.39
2018-09-30T02:34:40.940Z,8.34
2018-09-30T02:35:15.952Z,8.33
2018-09-30T02:35:50.691Z,8.31
2018-09-30T02:36:25.553Z,8.28
2018-09-30T02:37:00.291Z,8.25
2018-09-30T02:37:35.096Z,8.41
2018-09-30T02:38:10.383Z,8.42
2018-09-30T02:38:45.087Z,8.49
2018-09-30T02:39:19.741Z,8.46
2018-09-30T02:39:54.503Z,8.43
2018-09-30T02:40:29.885Z,8.43
2018-09-30T02:41:04.884Z,8.38
2018-09-30T02:41:39.664Z,8.34
2018-09-30T02:42:14.944Z,8.35
2018-09-30T02:42:49.574Z,8.38
2018-09-30T02:43:24.402Z,8.36
2018-09-30T02:43:59.108Z,8.34
2018-09-30T02:44:33.840Z,8.33
2018-09-30T02:45:08.413Z,8.32
2018-09-30T02:45:43.053Z,8.32
2018-09-30T02:46:17.759Z,8.21
2018-09-30T02:46:52.442Z,8.28
2018-09-30T02:47:27.205Z,8.24
2018-09-30T02:48:02.005Z,8.28
2018-09-30T02:48:36.976Z,8.26
2018-09-30T02:49:11.738Z,8.28
2018-09-30T02:49:46.393Z,8.24
2018-09-30T02:50:21.083Z,8.23
2018-09-30T02:50:55.835Z,8.28
2018-09-30T02:51:30.545Z,8.31
2018-09-30T02:52:05.364Z,8.25
2018-09-30T02:52:40.092Z,8.20
2018-09-30T02:53:14.816Z,8.20
2018-09-30T02:53:49.492Z,8.21
2018-09-30T02:54:24.390Z,8.21
2018-09-30T02:54:59.268Z,8.23
2018-09-30T02:55:33.998Z,8.33
2018-09-30T02:56:09.037Z,8.28
2018-09-30T02:56:43.713Z,8.26
2018-09-30T02:57:18.399Z,8.25
2018-09-30T02:57:53.082Z,8.20
2018-09-30T02:58:28.326Z,8.22
2018-09-30T02:59:03.287Z,8.18
2018-09-30T02:59:37.928Z,8.19
2018-09-30T03:00:13.009Z,8.11
2018-09-30T03:00:47.668Z,8.12
2018-09-30T03:01:22.361Z,8.24
2018-09-30T03:01:57.411Z,8.24
2018-09-30T03:02:32.224Z,8.21
2018-09-30T03:03:07.064Z,8.14
2018-09-30T03:03:41.809Z,8.19
2018-09-30T03:04:16.814Z,8.22
2018-09-30T03:04:51.639Z,8.17
2018-09-30T03:05:26.759Z,8.30
2018-09-30T03:06:01.538Z,8.27
2018-09-30T03:06:41.712Z,8.22
2018-09-30T03:07:21.711Z,8.21
2018-09-30T03:09:00.424Z,8.19
2018-09-30T03:09:35.140Z,8.24
2018-09-30T03:10:10.186Z,8.24
2018-09-30T03:10:44.845Z,8.11
2018-09-30T03:11:19.508Z,8.08
2018-09-30T03:11:54.402Z,8.08
2018-09-30T03:12:29.246Z,8.12
2018-09-30T03:13:04.056Z,8.16
2018-09-30T03:13:38.697Z,8.13
2018-09-30T03:14:14.836Z,8.16
2018-09-30T03:14:49.468Z,8.32
2018-09-30T03:15:24.398Z,8.40
2018-09-30T03:15:59.136Z,8.35
2018-09-30T03:16:33.919Z,8.33
2018-09-30T03:17:08.570Z,8.26
2018-09-30T03:17:43.224Z,8.18
2018-09-30T03:18:18.029Z,8.22
2018-09-30T03:18:52.729Z,8.15
2018-09-30T03:19:27.785Z,8.21
2018-09-30T03:20:02.751Z,8.27
2018-09-30T03:20:37.412Z,8.20
2018-09-30T03:21:12.047Z,8.30
2018-09-30T03:21:46.692Z,8.24
2018-09-30T03:22:21.357Z,8.18
2018-09-30T03:22:56.102Z,8.13
2018-09-30T03:23:30.847Z,8.07
2018-09-30T03:24:05.524Z,8.13
2018-09-30T03:24:40.193Z,8.08
2018-09-30T03:25:14.958Z,8.07
2018-09-30T03:25:49.865Z,8.02
2018-09-30T03:26:24.833Z,8.07
2018-09-30T03:26:59.577Z,8.15
2018-09-30T03:27:34.265Z,8.07
2018-09-30T03:28:09.049Z,8.15
2018-09-30T03:28:43.733Z,8.27
2018-09-30T03:29:18.571Z,8.18
2018-09-30T03:29:53.248Z,8.18
2018-09-30T03:30:28.169Z,8.12
2018-09-30T03:31:02.968Z,8.15
2018-09-30T03:31:37.745Z,8.10
2018-09-30T03:32:12.426Z,8.12
2018-09-30T03:32:47.411Z,8.11
2018-09-30T03:33:22.072Z,8.13
2018-09-30T03:33:56.935Z,8.04
2018-09-30T03:34:31.627Z,8.04
2018-09-30T03:35:06.486Z,8.00
2018-09-30T03:35:41.256Z,8.04
2018-09-30T03:36:15.985Z,8.15
2018-09-30T03:36:50.688Z,8.23
2018-09-30T03:37:25.568Z,8.20
2018-09-30T03:38:00.444Z,8.09
2018-09-30T03:38:35.148Z,8.07
2018-09-30T03:39:10.200Z,8.09
2018-09-30T03:39:45.307Z,7.99
2018-09-30T03:40:20.139Z,8.07
2018-09-30T03:40:54.952Z,8.09
2018-09-30T03:41:29.941Z,8.16
2018-09-30T03:42:11.293Z,8.13
2018-09-30T03:42:45.921Z,8.09
2018-09-30T03:43:20.612Z,7.97
2018-09-30T03:43:55.535Z,7.96
2018-09-30T03:44:29.810Z,8.06
2018-09-30T03:45:04.534Z,7.97
2018-09-30T03:45:39.177Z,7.92
2018-09-30T03:46:13.840Z,7.86
2018-09-30T03:46:48.480Z,7.88
2018-09-30T03:47:23.160Z,7.94
2018-09-30T03:47:58.015Z,7.87
2018-09-30T03:48:32.779Z,7.78
2018-09-30T03:49:07.671Z,7.77
2018-09-30T03:49:42.318Z,7.77
2018-09-30T03:50:17.215Z,7.78
2018-09-30T03:50:51.996Z,7.76
2018-09-30T03:51:26.975Z,7.71
2018-09-30T03:52:01.793Z,7.77
2018-09-30T03:52:36.620Z,7.69
2018-09-30T03:53:10.844Z,7.73
2018-09-30T03:53:45.500Z,7.93
2018-09-30T03:54:20.211Z,7.93
2018-09-30T03:54:55.037Z,7.81
2018-09-30T03:55:30.001Z,7.89
2018-09-30T03:56:04.704Z,7.81
2018-09-30T03:56:39.614Z,7.82
2018-09-30T03:57:14.440Z,7.67
2018-09-30T03:57:49.080Z,7.61
2018-09-30T03:58:24.290Z,7.64
2018-09-30T03:58:59.341Z,7.66
2018-09-30T03:59:34.143Z,7.58
2018-09-30T04:00:08.864Z,7.56
2018-09-30T04:00:43.640Z,7.53
2018-09-30T04:01:18.448Z,7.54
2018-09-30T04:01:53.354Z,7.54
2018-09-30T04:02:28.149Z,7.50
2018-09-30T04:03:02.987Z,7.53
2018-09-30T04:03:37.684Z,7.50
2018-09-30T04:04:12.372Z,7.43
2018-09-30T04:04:47.318Z,7.42
2018-09-30T04:05:22.072Z,7.41
2018-09-30T04:05:56.913Z,7.45
2018-09-30T04:06:31.820Z,7.50
2018-09-30T04:07:06.654Z,7.46
2018-09-30T04:07:41.294Z,7.43
2018-09-30T04:08:15.937Z,7.46
2018-09-30T04:08:50.594Z,7.44
2018-09-30T04:09:25.642Z,7.42
2018-09-30T04:10:00.548Z,7.41
2018-09-30T04:10:35.377Z,7.59
2018-09-30T04:11:10.034Z,7.56
2018-09-30T04:11:44.660Z,7.52
2018-09-30T04:12:19.322Z,7.57
2018-09-30T04:12:54.489Z,7.52
2018-09-30T04:13:29.196Z,7.58
2018-09-30T04:14:03.936Z,7.47
2018-09-30T04:14:38.576Z,7.44
2018-09-30T04:15:13.263Z,7.48
2018-09-30T04:15:47.910Z,7.43
2018-09-30T04:16:22.664Z,7.42
2018-09-30T04:16:57.543Z,7.48
2018-09-30T04:17:32.399Z,7.40
2018-09-30T04:18:07.253Z,7.38
2018-09-30T04:18:41.884Z,7.37
2018-09-30T04:19:16.568Z,7.31
2018-09-30T04:19:51.196Z,7.22
2018-09-30T04:20:26.077Z,7.24
2018-09-30T04:21:00.804Z,7.23
2018-09-30T04:21:35.486Z,7.20
2018-09-30T04:22:10.122Z,7.22
2018-09-30T04:22:44.753Z,7.16
2018-09-30T04:23:19.398Z,7.12
2018-09-30T04:23:59.417Z,7.11
2018-09-30T04:24:34.143Z,7.12
2018-09-30T04:25:08.788Z,7.14
2018-09-30T04:25:43.525Z,7.18
2018-09-30T04:26:17.668Z,7.16
2018-09-30T04:26:51.861Z,7.18
2018-09-30T04:27:26.368Z,7.12
2018-09-30T04:28:00.586Z,7.08
2018-09-30T04:28:35.597Z,7.12
2018-09-30T04:29:10.314Z,7.09
2018-09-30T04:29:44.939Z,7.08
2018-09-30T04:30:19.732Z,7.07
2018-09-30T04:30:55.415Z,7.12
2018-09-30T04:31:30.622Z,7.03
2018-09-30T04:32:05.869Z,7.02
2018-09-30T04:32:40.492Z,7.07
2018-09-30T04:33:15.247Z,7.06
2018-09-30T04:33:50.119Z,7.15
2018-09-30T04:34:25.507Z,7.12
2018-09-30T04:35:00.735Z,7.11
2018-09-30T04:35:35.792Z,7.10
2018-09-30T04:36:10.720Z,7.08
2018-09-30T04:36:45.594Z,7.08
2018-09-30T04:37:20.302Z,7.10
2018-09-30T04:37:55.377Z,7.09
2018-09-30T04:38:30.433Z,7.03
2018-09-30T04:39:07.853Z,7.02
2018-09-30T04:39:42.489Z,7.06
2018-09-30T04:40:17.172Z,7.02
2018-09-30T04:40:51.796Z,7.03
2018-09-30T04:41:26.698Z,7.05
2018-09-30T04:42:01.657Z,7.05
2018-09-30T04:42:36.412Z,6.97
2018-09-30T04:43:11.409Z,6.99
2018-09-30T04:43:46.073Z,7.01
2018-09-30T04:44:20.688Z,6.95
2018-09-30T04:44:55.434Z,7.03
2018-09-30T04:45:30.265Z,6.97
2018-09-30T04:46:04.978Z,6.98
2018-09-30T04:46:39.592Z,6.95
2018-09-30T04:47:14.236Z,6.92
2018-09-30T04:47:48.877Z,6.90
2018-09-30T04:48:23.555Z,6.89
2018-09-30T04:48:58.391Z,6.87
2018-09-30T04:49:33.201Z,6.88
2018-09-30T04:50:08.673Z,6.89
2018-09-30T04:50:43.434Z,6.93
2018-09-30T04:51:18.095Z,7.00
2018-09-30T04:51:52.318Z,7.05
2018-09-30T04:52:27.301Z,7.01
2018-09-30T04:53:02.056Z,6.97
2018-09-30T04:53:36.688Z,6.97
2018-09-30T04:54:11.332Z,7.05
2018-09-30T04:54:45.989Z,7.04
2018-09-30T04:55:20.917Z,7.07
2018-09-30T04:55:55.662Z,7.06
2018-09-30T04:56:30.402Z,7.06
2018-09-30T04:57:05.052Z,7.03
2018-09-30T04:57:39.766Z,7.05
2018-09-30T04:58:14.446Z,7.04
2018-09-30T04:58:49.113Z,7.02
2018-09-30T04:59:23.821Z,7.03
2018-09-30T04:59:58.544Z,7.02
2018-09-30T05:00:32.702Z,7.02
2018-09-30T05:01:07.713Z,7.00
2018-09-30T05:01:42.428Z,6.92
2018-09-30T05:02:17.048Z,6.95
2018-09-30T05:02:51.722Z,6.92
2018-09-30T05:03:26.636Z,6.92
2018-09-30T05:04:01.361Z,6.90
2018-09-30T05:04:36.073Z,6.89
2018-09-30T05:05:10.732Z,6.95
2018-09-30T05:05:45.387Z,6.90
2018-09-30T05:06:20.180Z,6.91
2018-09-30T05:06:54.998Z,6.91
2018-09-30T05:07:29.765Z,6.91
2018-09-30T05:08:04.580Z,6.92
2018-09-30T05:08:39.208Z,6.87
2018-09-30T05:09:13.360Z,6.85
2018-09-30T05:09:47.990Z,6.80
2018-09-30T05:10:22.815Z,6.83
2018-09-30T05:10:57.954Z,6.83
2018-09-30T05:11:32.752Z,6.80
2018-09-30T05:12:07.441Z,6.82
2018-09-30T05:12:42.396Z,6.83
2018-09-30T05:13:17.033Z,6.77
2018-09-30T05:13:51.685Z,6.76
2018-09-30T05:14:26.727Z,6.81
2018-09-30T05:15:01.527Z,6.81
2018-09-30T05:15:36.242Z,6.78
2018-09-30T05:16:11.086Z,6.74
2018-09-30T05:16:45.962Z,6.80
2018-09-30T05:17:20.637Z,6.80
2018-09-30T05:17:55.735Z,6.73
2018-09-30T05:18:30.650Z,6.69
2018-09-30T05:19:05.309Z,6.73
2018-09-30T05:19:39.946Z,6.67
2018-09-30T05:20:14.588Z,6.70
2018-09-30T05:20:49.272Z,6.70
2018-09-30T05:21:24.183Z,6.70
2018-09-30T05:21:58.885Z,6.72
2018-09-30T05:22:33.652Z,6.69
2018-09-30T05:23:08.296Z,6.70
2018-09-30T05:23:42.941Z,6.70
2018-09-30T05:24:17.895Z,6.72
2018-09-30T05:24:52.618Z,6.68
2018-09-30T05:25:27.541Z,6.68
2018-09-30T05:26:02.314Z,6.69
2018-09-30T05:26:36.996Z,6.67
2018-09-30T05:27:11.608Z,6.66
2018-09-30T05:27:46.240Z,6.64
2018-09-30T05:28:20.867Z,6.63
2018-09-30T05:28:55.784Z,6.62
2018-09-30T05:29:30.613Z,6.74
2018-09-30T05:30:06.236Z,6.74
2018-09-30T05:30:40.897Z,6.74
2018-09-30T05:31:15.573Z,6.75
2018-09-30T05:31:50.377Z,6.74
2018-09-30T05:32:25.209Z,6.74
2018-09-30T05:33:00.108Z,6.83
2018-09-30T05:33:34.804Z,6.78
2018-09-30T05:34:09.509Z,6.80
2018-09-30T05:34:44.139Z,6.83
2018-09-30T05:35:18.753Z,6.99
2018-09-30T05:35:53.520Z,7.03
2018-09-30T05:36:28.307Z,7.03
2018-09-30T05:37:03.236Z,6.98
2018-09-30T05:37:38.027Z,6.97
2018-09-30T05:38:12.640Z,6.95
2018-09-30T05:38:47.413Z,6.98
2018-09-30T05:39:22.410Z,7.01
2018-09-30T05:39:57.420Z,7.10
2018-09-30T05:40:32.164Z,7.10
2018-09-30T05:41:06.964Z,7.00
2018-09-30T05:41:41.709Z,6.95
2018-09-30T05:42:16.310Z,6.92
2018-09-30T05:42:50.926Z,7.02
2018-09-30T05:43:25.786Z,6.96
2018-09-30T05:44:00.728Z,6.93
2018-09-30T05:44:35.400Z,6.87
2018-09-30T05:45:10.076Z,6.90
2018-09-30T05:45:44.731Z,6.91
2018-09-30T05:46:19.377Z,6.94
2018-09-30T05:46:54.038Z,6.90
2018-09-30T05:47:29.077Z,7.03
2018-09-30T05:48:04.172Z,7.00
2018-09-30T05:48:38.892Z,7.05
2018-09-30T05:49:13.622Z,7.07
2018-09-30T05:49:48.450Z,7.05
2018-09-30T05:50:24.104Z,7.05
2018-09-30T05:50:59.052Z,7.11
2018-09-30T05:51:33.776Z,7.19
2018-09-30T05:52:08.561Z,7.17
2018-09-30T05:52:43.293Z,7.14
2018-09-30T05:53:17.956Z,7.11
2018-09-30T05:53:52.680Z,7.07
2018-09-30T05:54:27.597Z,7.09
2018-09-30T05:55:02.468Z,7.07
2018-09-30T05:55:37.209Z,7.06
2018-09-30T05:56:11.888Z,7.05
2018-09-30T05:56:46.540Z,6.98
2018-09-30T05:57:21.195Z,7.03
2018-09-30T05:57:56.392Z,7.02
2018-09-30T05:58:31.723Z,7.10
2018-09-30T05:59:06.689Z,7.09
2018-09-30T05:59:40.884Z,7.16
2018-09-30T06:00:15.548Z,7.12
2018-09-30T06:00:50.470Z,7.13
2018-09-30T06:01:25.325Z,7.10
2018-09-30T06:02:00.112Z,7.07
2018-09-30T06:02:34.882Z,7.09
2018-09-30T06:03:09.495Z,7.19
2018-09-30T06:03:44.161Z,7.16
2018-09-30T06:04:18.776Z,7.12
2018-09-30T06:04:53.915Z,7.16
2018-09-30T06:05:28.862Z,7.12
2018-09-30T06:06:03.643Z,7.16
2018-09-30T06:06:38.373Z,7.23
2018-09-30T06:07:13.022Z,7.19
2018-09-30T06:07:47.665Z,7.15
2018-09-30T06:08:22.351Z,7.32
2018-09-30T06:08:57.390Z,7.25
2018-09-30T06:09:32.498Z,7.18
2018-09-30T06:10:07.938Z,7.21
2018-09-30T06:10:42.570Z,7.18
2018-09-30T06:11:17.252Z,7.24
2018-09-30T06:11:51.950Z,7.21
2018-09-30T06:12:26.746Z,7.15
2018-09-30T06:13:01.600Z,7.16
2018-09-30T06:13:36.275Z,7.16
2018-09-30T06:14:11.256Z,7.18
2018-09-30T06:14:46.075Z,7.26
2018-09-30T06:15:20.765Z,7.30
2018-09-30T06:15:55.768Z,7.30
2018-09-30T06:16:30.775Z,7.37
2018-09-30T06:17:05.391Z,7.44
2018-09-30T06:17:40.237Z,7.42
2018-09-30T06:18:14.872Z,7.48
2018-09-30T06:18:49.703Z,7.43
2018-09-30T06:19:24.816Z,7.44
2018-09-30T06:20:00.057Z,7.57
2018-09-30T06:20:34.938Z,7.57
2018-09-30T06:21:09.816Z,7.57
2018-09-30T06:21:44.962Z,7.53
2018-09-30T06:22:19.781Z,7.57
2018-09-30T06:22:54.804Z,7.55
2018-09-30T06:23:29.618Z,7.54
2018-09-30T06:24:04.565Z,7.46
2018-09-30T06:24:39.636Z,7.50
2018-09-30T06:25:14.377Z,7.49
2018-09-30T06:25:49.252Z,7.51
2018-09-30T06:26:24.199Z,7.46
2018-09-30T06:26:59.544Z,7.55
2018-09-30T06:27:34.390Z,7.57
2018-09-30T06:28:09.129Z,7.57
2018-09-30T06:28:43.806Z,7.54
2018-09-30T06:29:18.615Z,7.53
2018-09-30T06:29:53.350Z,7.56
2018-09-30T06:30:28.299Z,7.56
2018-09-30T06:31:03.415Z,7.59
2018-09-30T06:31:38.242Z,7.67
2018-09-30T06:32:13.198Z,7.64
2018-09-30T06:32:48.080Z,7.69
2018-09-30T06:33:23.346Z,7.73
2018-09-30T06:33:58.369Z,7.68
2018-09-30T06:34:33.197Z,7.70
2018-09-30T06:35:07.942Z,7.68
2018-09-30T06:35:42.606Z,7.73
2018-09-30T06:36:17.333Z,7.70
2018-09-30T06:36:52.155Z,7.71
2018-09-30T06:37:27.315Z,7.81
2018-09-30T06:38:02.534Z,7.92
2018-09-30T06:38:37.330Z,7.92
2018-09-30T06:39:12.139Z,7.94
2018-09-30T06:39:46.802Z,7.93
2018-09-30T06:40:21.792Z,7.98
2018-09-30T06:40:56.988Z,7.98
2018-09-30T06:41:31.887Z,8.00
2018-09-30T06:42:06.974Z,7.98
2018-09-30T06:42:41.639Z,8.02
2018-09-30T06:43:16.269Z,8.01
2018-09-30T06:43:50.984Z,7.98
2018-09-30T06:44:26.173Z,8.01
2018-09-30T06:45:01.155Z,8.01
2018-09-30T06:45:35.971Z,8.05
2018-09-30T06:46:10.868Z,8.03
2018-09-30T06:46:45.555Z,8.11
2018-09-30T06:47:20.312Z,8.08
2018-09-30T06:47:55.321Z,8.11
2018-09-30T06:48:30.289Z,8.20
2018-09-30T06:49:05.308Z,8.18
2018-09-30T06:49:40.308Z,8.19
2018-09-30T06:50:15.021Z,8.19
2018-09-30T06:50:49.804Z,8.26
2018-09-30T06:51:24.984Z,8.35
2018-09-30T06:51:59.867Z,8.28
2018-09-30T06:52:34.866Z,8.30
2018-09-30T06:53:09.510Z,8.35
2018-09-30T06:53:44.126Z,8.31
2018-09-30T06:54:18.736Z,8.39
2018-09-30T06:54:53.734Z,8.36
2018-09-30T06:55:28.709Z,8.34
2018-09-30T06:56:03.576Z,8.43
2018-09-30T06:56:38.208Z,8.51
2018-09-30T06:57:13.245Z,8.53
2018-09-30T06:57:47.889Z,8.53
2018-09-30T06:58:22.723Z,8.49
2018-09-30T06:58:57.635Z,8.53
2018-09-30T06:59:32.508Z,8.64
2018-09-30T07:00:07.210Z,8.74
2018-09-30T07:00:41.808Z,8.73
2018-09-30T07:01:16.435Z,8.66
2018-09-30T07:01:51.190Z,8.63
2018-09-30T07:02:26.008Z,8.84
2018-09-30T07:03:00.887Z,8.82
2018-09-30T07:03:35.528Z,8.86
2018-09-30T07:04:10.143Z,8.79
2018-09-30T07:04:44.803Z,8.78
2018-09-30T07:05:19.679Z,8.81
2018-09-30T07:05:55.026Z,8.83
2018-09-30T07:06:29.841Z,8.77
2018-09-30T07:07:04.535Z,8.79
2018-09-30T07:07:39.212Z,8.85
2018-09-30T07:08:14.131Z,8.82
2018-09-30T07:08:49.236Z,8.83
2018-09-30T07:09:23.961Z,8.82
2018-09-30T07:09:58.681Z,8.85
2018-09-30T07:10:33.544Z,8.84
2018-09-30T07:11:08.169Z,8.85
2018-09-30T07:11:42.787Z,8.88
2018-09-30T07:12:17.393Z,8.87
2018-09-30T07:12:52.070Z,8.83
2018-09-30T07:13:26.845Z,8.87
2018-09-30T07:14:01.597Z,9.01
2018-09-30T07:14:36.353Z,8.95
2018-09-30T07:15:10.968Z,8.90
2018-09-30T07:15:45.660Z,8.95
2018-09-30T07:16:20.295Z,8.91
2018-09-30T07:16:55.121Z,9.00
2018-09-30T07:17:29.975Z,9.08
2018-09-30T07:18:04.610Z,9.22
2018-09-30T07:18:39.260Z,9.10
2018-09-30T07:19:13.879Z,9.08
2018-09-30T07:19:48.487Z,8.98
2018-09-30T07:20:22.652Z,8.92
2018-09-30T07:20:57.388Z,8.89
2018-09-30T07:21:32.072Z,8.89
2018-09-30T07:22:07.111Z,8.89
2018-09-30T07:22:41.762Z,8.88
2018-09-30T07:23:16.592Z,8.90
2018-09-30T07:23:51.205Z,8.89
2018-09-30T07:24:25.912Z,8.89
2018-09-30T07:25:00.613Z,8.94
2018-09-30T07:25:35.248Z,9.13
2018-09-30T07:26:09.870Z,9.09
2018-09-30T07:26:44.528Z,9.12
2018-09-30T07:27:19.165Z,9.16
2018-09-30T07:27:53.860Z,9.35
2018-09-30T07:28:28.807Z,9.26
2018-09-30T07:29:02.989Z,9.17
2018-09-30T07:29:37.684Z,9.18
2018-09-30T07:30:12.339Z,9.22
2018-09-30T07:30:47.044Z,9.31
2018-09-30T07:31:21.644Z,9.31
2018-09-30T07:31:56.404Z,9.20
2018-09-30T07:32:31.152Z,9.34
2018-09-30T07:33:05.808Z,9.26
2018-09-30T07:33:40.424Z,9.24
2018-09-30T07:34:15.054Z,9.20
2018-09-30T07:34:49.997Z,9.36
2018-09-30T07:35:24.699Z,9.42
2018-09-30T07:35:59.719Z,9.34
2018-09-30T07:36:34.421Z,9.31
2018-09-30T07:37:09.049Z,9.29
2018-09-30T07:37:43.699Z,9.26
2018-09-30T07:38:18.333Z,9.27
2018-09-30T07:38:53.001Z,9.25
2018-09-30T07:39:27.903Z,9.25
2018-09-30T07:40:02.928Z,9.25
2018-09-30T07:40:37.645Z,9.26
2018-09-30T07:41:12.312Z,9.29
2018-09-30T07:41:47.310Z,9.33
2018-09-30T07:42:21.963Z,9.43
2018-09-30T07:42:56.757Z,9.43
2018-09-30T07:43:31.561Z,9.45
2018-09-30T07:44:06.232Z,9.53
2018-09-30T07:44:41.304Z,9.51
2018-09-30T07:45:15.929Z,9.46
2018-09-30T07:45:50.654Z,9.46
2018-09-30T07:46:25.595Z,9.46
2018-09-30T07:47:00.382Z,9.45